Shinsei Maru — JK5560 — position and weather

sailwx.info

Track history (hours):
 
Tides and Currents Weather Stations Pressure Air Temp Water Temp Dewpoint Dewpoint Depression Visibility Wind Speed Wind Dir Waves Ship Positions

Shinsei Maru

Last reported at 2018-Jun-20 03:05 UTC. Time now 2018-Jun-20 09:15 UTC.
Position N 34°37' E 135°25'.

Length 52 m.

Type: Cargo ship. MMSI: 431401913.

Date/timePositionNaut miles runAvg speedWind from/ knotsBaromVisibWave heightAir tempDewpointWater temp
2018-Jun-20 03:05N 34°37' E 135°25'0 1.6
2018-Jun-20 02:46N 34°37' E 135°25'2 8.6
2018-Jun-20 02:29N 34°37' E 135°22'4 9.2
2018-Jun-20 02:00N 34°36' E 135°17'510.0
2018-Jun-20 01:30N 34°35' E 135°11'510.8
2018-Jun-20 01:00N 34°35' E 135°04'2410.2
2018-Jun-19 22:37N 34°29' E 134°36'110.2
2018-Jun-19 22:30N 34°28' E 134°34'  
2018-Jun-14 22:43N 34°29' E 134°28'31 1.6
2018-Jun-14 03:28N 34°36' E 135°05'5 9.6
2018-Jun-14 02:58N 34°37' E 135°11'510.5
2018-Jun-14 02:29N 34°37' E 135°17'7 0.4
2018-Jun-13 06:54N 34°35' E 135°26'3 5.8
2018-Jun-13 06:25N 34°38' E 135°24'1 0.2
2018-Jun-13 01:08N 34°37' E 135°25'1 8.0
2018-Jun-13 00:59N 34°38' E 135°24'4 8.9
2018-Jun-13 00:30N 34°36' E 135°19'5 9.7
2018-Jun-12 23:59N 34°35' E 135°13'5 9.8
2018-Jun-12 23:30N 34°35' E 135°07'29 8.0
2018-Jun-12 19:57N 34°28' E 134°33'  
Track history (hours):
 
Tides and Currents Weather Stations Pressure Air Temp Water Temp Dewpoint Dewpoint Depression Visibility Wind Speed Wind Dir Waves Ship Positions

Shinsei Maru

Last reported at 2018-Jun-20 03:05 UTC. Time now 2018-Jun-20 09:15 UTC.
Position N 34°37' E 135°25'.

Length 52 m.

Type: Cargo ship. MMSI: 431401913.

Date/timePositionNaut miles runAvg speedWind from/ knotsBaromVisibWave heightAir tempDewpointWater temp
2018-Jun-20 03:05N 34°37' E 135°25'0 1.6
2018-Jun-20 02:46N 34°37' E 135°25'2 8.6
2018-Jun-20 02:29N 34°37' E 135°22'4 9.2
2018-Jun-20 02:00N 34°36' E 135°17'510.0
2018-Jun-20 01:30N 34°35' E 135°11'510.8
2018-Jun-20 01:00N 34°35' E 135°04'2410.2
2018-Jun-19 22:37N 34°29' E 134°36'110.2
2018-Jun-19 22:30N 34°28' E 134°34'  
2018-Jun-14 22:43N 34°29' E 134°28'31 1.6
2018-Jun-14 03:28N 34°36' E 135°05'5 9.6
2018-Jun-14 02:58N 34°37' E 135°11'510.5
2018-Jun-14 02:29N 34°37' E 135°17'7 0.4
2018-Jun-13 06:54N 34°35' E 135°26'3 5.8
2018-Jun-13 06:25N 34°38' E 135°24'1 0.2
2018-Jun-13 01:08N 34°37' E 135°25'1 8.0
2018-Jun-13 00:59N 34°38' E 135°24'4 8.9
2018-Jun-13 00:30N 34°36' E 135°19'5 9.7
2018-Jun-12 23:59N 34°35' E 135°13'5 9.8
2018-Jun-12 23:30N 34°35' E 135°07'29 8.0
2018-Jun-12 19:57N 34°28' E 134°33'  

Dump ship's entire track history